sensor_id;sensor_type;location;lat;lon;timestamp;P1;durP1;ratioP1;P2;durP2;ratioP2
19388;SDS011;9830;41.876;23.474;2023-02-28T00:02:14;0.30;;;0.30;;
19388;SDS011;9830;41.876;23.474;2023-02-28T00:04:42;0.10;;;0.10;;
19388;SDS011;9830;41.876;23.474;2023-02-28T00:07:08;1.23;;;0.60;;
19388;SDS011;9830;41.876;23.474;2023-02-28T00:09:34;0.77;;;0.40;;
19388;SDS011;9830;41.876;23.474;2023-02-28T00:12:00;1.17;;;1.03;;
19388;SDS011;9830;41.876;23.474;2023-02-28T00:14:35;0.53;;;0.53;;
19388;SDS011;9830;41.876;23.474;2023-02-28T00:17:03;0.47;;;0.47;;
19388;SDS011;9830;41.876;23.474;2023-02-28T00:19:29;1.70;;;0.90;;
19388;SDS011;9830;41.876;23.474;2023-02-28T00:21:54;0.10;;;0.10;;
19388;SDS011;9830;41.876;23.474;2023-02-28T00:24:20;1.87;;;1.00;;
19388;SDS011;9830;41.876;23.474;2023-02-28T00:26:46;0.47;;;0.47;;
19388;SDS011;9830;41.876;23.474;2023-02-28T00:29:11;1.37;;;0.60;;
19388;SDS011;9830;41.876;23.474;2023-02-28T00:31:37;0.73;;;0.73;;
19388;SDS011;9830;41.876;23.474;2023-02-28T00:34:02;0.00;;;0.00;;
19388;SDS011;9830;41.876;23.474;2023-02-28T00:36:28;8.73;;;2.53;;
19388;SDS011;9830;41.876;23.474;2023-02-28T00:38:54;0.80;;;0.60;;
19388;SDS011;9830;41.876;23.474;2023-02-28T00:41:19;1.93;;;0.93;;
19388;SDS011;9830;41.876;23.474;2023-02-28T00:43:46;0.37;;;0.37;;
19388;SDS011;9830;41.876;23.474;2023-02-28T00:46:11;0.10;;;0.10;;
19388;SDS011;9830;41.876;23.474;2023-02-28T00:48:37;0.30;;;0.30;;
19388;SDS011;9830;41.876;23.474;2023-02-28T00:51:03;0.43;;;0.43;;
19388;SDS011;9830;41.876;23.474;2023-02-28T00:53:29;11.67;;;0.87;;
19388;SDS011;9830;41.876;23.474;2023-02-28T00:55:55;0.20;;;0.20;;
19388;SDS011;9830;41.876;23.474;2023-02-28T00:58:21;2.13;;;1.03;;
19388;SDS011;9830;41.876;23.474;2023-02-28T01:00:46;0.57;;;0.57;;
19388;SDS011;9830;41.876;23.474;2023-02-28T01:03:14;0.60;;;0.50;;
19388;SDS011;9830;41.876;23.474;2023-02-28T01:05:44;0.10;;;0.10;;
19388;SDS011;9830;41.876;23.474;2023-02-28T01:08:09;0.53;;;0.30;;
19388;SDS011;9830;41.876;23.474;2023-02-28T01:10:35;5.03;;;1.73;;
19388;SDS011;9830;41.876;23.474;2023-02-28T01:13:02;0.80;;;0.47;;
19388;SDS011;9830;41.876;23.474;2023-02-28T01:15:28;1.47;;;0.53;;
19388;SDS011;9830;41.876;23.474;2023-02-28T01:17:53;0.37;;;0.37;;
19388;SDS011;9830;41.876;23.474;2023-02-28T01:20:19;0.23;;;0.23;;
19388;SDS011;9830;41.876;23.474;2023-02-28T01:22:45;1.30;;;0.67;;
19388;SDS011;9830;41.876;23.474;2023-02-28T01:25:12;0.67;;;0.67;;
19388;SDS011;9830;41.876;23.474;2023-02-28T01:27:37;0.20;;;0.20;;
19388;SDS011;9830;41.876;23.474;2023-02-28T01:30:04;0.23;;;0.23;;
19388;SDS011;9830;41.876;23.474;2023-02-28T01:32:31;0.10;;;0.10;;
19388;SDS011;9830;41.876;23.474;2023-02-28T01:34:57;0.17;;;0.17;;
19388;SDS011;9830;41.876;23.474;2023-02-28T01:37:23;0.97;;;0.83;;
19388;SDS011;9830;41.876;23.474;2023-02-28T01:39:48;1.17;;;1.07;;
19388;SDS011;9830;41.876;23.474;2023-02-28T01:42:14;0.13;;;0.13;;
19388;SDS011;9830;41.876;23.474;2023-02-28T01:47:38;0.20;;;0.20;;
19388;SDS011;9830;41.876;23.474;2023-02-28T01:50:09;0.53;;;0.53;;
19388;SDS011;9830;41.876;23.474;2023-02-28T01:52:39;1.03;;;0.50;;
19388;SDS011;9830;41.876;23.474;2023-02-28T01:55:06;0.90;;;0.83;;
19388;SDS011;9830;41.876;23.474;2023-02-28T01:57:34;0.27;;;0.27;;
19388;SDS011;9830;41.876;23.474;2023-02-28T02:02:43;0.20;;;0.20;;
19388;SDS011;9830;41.876;23.474;2023-02-28T02:05:14;0.10;;;0.10;;
19388;SDS011;9830;41.876;23.474;2023-02-28T02:07:43;0.00;;;0.00;;
19388;SDS011;9830;41.876;23.474;2023-02-28T02:10:12;0.33;;;0.33;;
19388;SDS011;9830;41.876;23.474;2023-02-28T02:15:21;1.00;;;0.10;;
19388;SDS011;9830;41.876;23.474;2023-02-28T02:18:09;14.33;;;0.70;;
19388;SDS011;9830;41.876;23.474;2023-02-28T02:34:58;7.47;;;1.47;;
19388;SDS011;9830;41.876;23.474;2023-02-28T02:40:30;1.90;;;0.93;;
19388;SDS011;9830;41.876;23.474;2023-02-28T02:43:06;1.53;;;0.87;;
19388;SDS011;9830;41.876;23.474;2023-02-28T02:45:53;0.00;;;0.00;;
19388;SDS011;9830;41.876;23.474;2023-02-28T02:48:23;0.17;;;0.17;;
19388;SDS011;9830;41.876;23.474;2023-02-28T02:50:56;0.37;;;0.30;;
19388;SDS011;9830;41.876;23.474;2023-02-28T02:53:32;0.20;;;0.20;;
19388;SDS011;9830;41.876;23.474;2023-02-28T02:56:01;26.97;;;0.50;;
19388;SDS011;9830;41.876;23.474;2023-02-28T02:58:32;6.17;;;0.50;;
19388;SDS011;9830;41.876;23.474;2023-02-28T03:01:07;1.03;;;0.87;;
19388;SDS011;9830;41.876;23.474;2023-02-28T03:03:35;0.67;;;0.50;;
19388;SDS011;9830;41.876;23.474;2023-02-28T03:06:01;0.10;;;0.10;;
19388;SDS011;9830;41.876;23.474;2023-02-28T03:08:28;0.63;;;0.50;;
19388;SDS011;9830;41.876;23.474;2023-02-28T03:11:06;0.03;;;0.03;;
19388;SDS011;9830;41.876;23.474;2023-02-28T03:25:18;2.20;;;1.80;;
19388;SDS011;9830;41.876;23.474;2023-02-28T03:30:25;1.60;;;0.83;;
19388;SDS011;9830;41.876;23.474;2023-02-28T03:33:19;0.97;;;0.50;;
19388;SDS011;9830;41.876;23.474;2023-02-28T03:35:53;2.17;;;1.30;;
19388;SDS011;9830;41.876;23.474;2023-02-28T03:41:12;0.10;;;0.10;;
19388;SDS011;9830;41.876;23.474;2023-02-28T03:43:48;2.43;;;0.97;;
19388;SDS011;9830;41.876;23.474;2023-02-28T03:46:36;0.07;;;0.07;;
19388;SDS011;9830;41.876;23.474;2023-02-28T03:49:08;0.87;;;0.73;;
19388;SDS011;9830;41.876;23.474;2023-02-28T03:51:41;0.47;;;0.47;;
19388;SDS011;9830;41.876;23.474;2023-02-28T03:54:15;3.83;;;1.07;;
19388;SDS011;9830;41.876;23.474;2023-02-28T03:56:50;1.50;;;0.37;;
19388;SDS011;9830;41.876;23.474;2023-02-28T03:59:28;2.47;;;0.30;;
19388;SDS011;9830;41.876;23.474;2023-02-28T04:02:04;0.20;;;0.20;;
19388;SDS011;9830;41.876;23.474;2023-02-28T04:04:30;0.23;;;0.23;;
19388;SDS011;9830;41.876;23.474;2023-02-28T04:07:04;1.07;;;0.77;;
19388;SDS011;9830;41.876;23.474;2023-02-28T04:09:33;0.13;;;0.13;;
19388;SDS011;9830;41.876;23.474;2023-02-28T04:11:59;9.27;;;1.50;;
19388;SDS011;9830;41.876;23.474;2023-02-28T04:14:25;0.73;;;0.73;;
19388;SDS011;9830;41.876;23.474;2023-02-28T04:16:51;0.90;;;0.90;;
19388;SDS011;9830;41.876;23.474;2023-02-28T04:19:17;7.63;;;0.47;;
19388;SDS011;9830;41.876;23.474;2023-02-28T04:21:44;4.90;;;1.40;;
19388;SDS011;9830;41.876;23.474;2023-02-28T04:24:12;1.20;;;0.40;;
19388;SDS011;9830;41.876;23.474;2023-02-28T04:26:40;0.63;;;0.60;;
19388;SDS011;9830;41.876;23.474;2023-02-28T04:29:08;0.20;;;0.20;;
19388;SDS011;9830;41.876;23.474;2023-02-28T04:31:35;0.70;;;0.70;;
19388;SDS011;9830;41.876;23.474;2023-02-28T04:34:01;0.70;;;0.17;;
19388;SDS011;9830;41.876;23.474;2023-02-28T04:36:28;0.57;;;0.47;;
19388;SDS011;9830;41.876;23.474;2023-02-28T04:38:53;2.90;;;1.60;;
19388;SDS011;9830;41.876;23.474;2023-02-28T04:41:19;0.27;;;0.27;;
19388;SDS011;9830;41.876;23.474;2023-02-28T04:43:47;0.30;;;0.30;;
19388;SDS011;9830;41.876;23.474;2023-02-28T04:46:13;0.73;;;0.73;;
19388;SDS011;9830;41.876;23.474;2023-02-28T04:48:39;0.87;;;0.77;;
19388;SDS011;9830;41.876;23.474;2023-02-28T04:51:06;1.40;;;0.80;;
19388;SDS011;9830;41.876;23.474;2023-02-28T04:53:35;0.87;;;0.40;;
19388;SDS011;9830;41.876;23.474;2023-02-28T04:56:02;3.40;;;0.73;;
19388;SDS011;9830;41.876;23.474;2023-02-28T04:58:27;0.20;;;0.10;;
19388;SDS011;9830;41.876;23.474;2023-02-28T05:00:55;1.47;;;1.17;;
19388;SDS011;9830;41.876;23.474;2023-02-28T05:03:30;2.87;;;1.33;;
19388;SDS011;9830;41.876;23.474;2023-02-28T05:05:55;0.60;;;0.60;;
19388;SDS011;9830;41.876;23.474;2023-02-28T05:08:21;1.60;;;1.50;;
19388;SDS011;9830;41.876;23.474;2023-02-28T05:10:47;0.90;;;0.90;;
19388;SDS011;9830;41.876;23.474;2023-02-28T05:13:12;0.97;;;0.87;;
19388;SDS011;9830;41.876;23.474;2023-02-28T05:15:38;0.03;;;0.03;;
19388;SDS011;9830;41.876;23.474;2023-02-28T05:18:04;0.40;;;0.40;;
19388;SDS011;9830;41.876;23.474;2023-02-28T05:20:29;1.50;;;1.40;;
19388;SDS011;9830;41.876;23.474;2023-02-28T05:22:55;2.43;;;1.77;;
19388;SDS011;9830;41.876;23.474;2023-02-28T05:25:23;0.30;;;0.30;;
19388;SDS011;9830;41.876;23.474;2023-02-28T05:27:49;4.33;;;2.77;;
19388;SDS011;9830;41.876;23.474;2023-02-28T05:30:14;3.37;;;2.77;;
19388;SDS011;9830;41.876;23.474;2023-02-28T05:32:41;1.90;;;1.37;;
19388;SDS011;9830;41.876;23.474;2023-02-28T05:35:10;0.40;;;0.40;;
19388;SDS011;9830;41.876;23.474;2023-02-28T05:37:37;0.63;;;0.47;;
19388;SDS011;9830;41.876;23.474;2023-02-28T05:40:04;1.07;;;0.97;;
19388;SDS011;9830;41.876;23.474;2023-02-28T05:42:40;1.97;;;1.77;;
19388;SDS011;9830;41.876;23.474;2023-02-28T05:45:06;3.50;;;2.53;;
19388;SDS011;9830;41.876;23.474;2023-02-28T05:47:33;1.67;;;1.40;;
19388;SDS011;9830;41.876;23.474;2023-02-28T05:49:59;4.10;;;2.00;;
19388;SDS011;9830;41.876;23.474;2023-02-28T05:52:26;1.93;;;1.70;;
19388;SDS011;9830;41.876;23.474;2023-02-28T05:54:52;6.57;;;2.83;;
19388;SDS011;9830;41.876;23.474;2023-02-28T05:57:18;4.70;;;3.43;;
19388;SDS011;9830;41.876;23.474;2023-02-28T05:59:43;2.10;;;1.67;;
19388;SDS011;9830;41.876;23.474;2023-02-28T06:02:13;2.80;;;2.20;;
19388;SDS011;9830;41.876;23.474;2023-02-28T06:04:40;1.77;;;1.37;;
19388;SDS011;9830;41.876;23.474;2023-02-28T06:07:06;3.03;;;2.50;;
19388;SDS011;9830;41.876;23.474;2023-02-28T06:09:32;0.43;;;0.43;;
19388;SDS011;9830;41.876;23.474;2023-02-28T06:11:59;8.27;;;2.83;;
19388;SDS011;9830;41.876;23.474;2023-02-28T06:14:27;2.23;;;1.60;;
19388;SDS011;9830;41.876;23.474;2023-02-28T06:16:53;2.63;;;2.47;;
19388;SDS011;9830;41.876;23.474;2023-02-28T06:19:19;4.23;;;2.80;;
19388;SDS011;9830;41.876;23.474;2023-02-28T06:21:45;1.67;;;1.57;;
19388;SDS011;9830;41.876;23.474;2023-02-28T06:24:15;4.00;;;1.60;;
19388;SDS011;9830;41.876;23.474;2023-02-28T06:26:41;3.70;;;2.43;;
19388;SDS011;9830;41.876;23.474;2023-02-28T06:29:07;3.07;;;2.77;;
19388;SDS011;9830;41.876;23.474;2023-02-28T06:31:33;13.70;;;6.27;;
19388;SDS011;9830;41.876;23.474;2023-02-28T06:33:59;5.03;;;4.57;;
19388;SDS011;9830;41.876;23.474;2023-02-28T06:36:25;7.03;;;3.70;;
19388;SDS011;9830;41.876;23.474;2023-02-28T06:38:52;11.53;;;4.30;;
19388;SDS011;9830;41.876;23.474;2023-02-28T06:41:21;7.97;;;4.30;;
19388;SDS011;9830;41.876;23.474;2023-02-28T06:43:51;12.23;;;5.00;;
19388;SDS011;9830;41.876;23.474;2023-02-28T06:46:17;4.00;;;3.23;;
19388;SDS011;9830;41.876;23.474;2023-02-28T06:48:43;3.17;;;2.93;;
19388;SDS011;9830;41.876;23.474;2023-02-28T06:51:14;8.13;;;4.30;;
19388;SDS011;9830;41.876;23.474;2023-02-28T06:53:42;9.90;;;5.33;;
19388;SDS011;9830;41.876;23.474;2023-02-28T06:56:08;3.97;;;3.57;;
19388;SDS011;9830;41.876;23.474;2023-02-28T06:58:36;4.33;;;2.40;;
19388;SDS011;9830;41.876;23.474;2023-02-28T07:01:03;2.47;;;1.53;;
19388;SDS011;9830;41.876;23.474;2023-02-28T07:03:29;1.23;;;0.70;;
19388;SDS011;9830;41.876;23.474;2023-02-28T07:05:55;0.80;;;0.80;;
19388;SDS011;9830;41.876;23.474;2023-02-28T07:08:24;1.13;;;0.73;;
19388;SDS011;9830;41.876;23.474;2023-02-28T07:10:54;1.70;;;1.40;;
19388;SDS011;9830;41.876;23.474;2023-02-28T07:13:21;14.27;;;2.37;;
19388;SDS011;9830;41.876;23.474;2023-02-28T07:15:57;2.33;;;1.67;;
19388;SDS011;9830;41.876;23.474;2023-02-28T07:18:25;1.17;;;1.07;;
19388;SDS011;9830;41.876;23.474;2023-02-28T07:20:51;2.00;;;1.33;;
19388;SDS011;9830;41.876;23.474;2023-02-28T07:23:17;1.30;;;1.23;;
19388;SDS011;9830;41.876;23.474;2023-02-28T07:25:43;5.03;;;3.67;;
19388;SDS011;9830;41.876;23.474;2023-02-28T07:28:10;1.17;;;1.00;;
19388;SDS011;9830;41.876;23.474;2023-02-28T07:30:36;1.70;;;1.23;;
19388;SDS011;9830;41.876;23.474;2023-02-28T07:33:02;2.73;;;2.40;;
19388;SDS011;9830;41.876;23.474;2023-02-28T07:35:28;4.03;;;2.40;;
19388;SDS011;9830;41.876;23.474;2023-02-28T07:37:54;8.00;;;2.20;;
19388;SDS011;9830;41.876;23.474;2023-02-28T07:40:22;3.83;;;1.63;;
19388;SDS011;9830;41.876;23.474;2023-02-28T07:42:48;2.57;;;2.37;;
19388;SDS011;9830;41.876;23.474;2023-02-28T07:45:13;17.87;;;4.77;;
19388;SDS011;9830;41.876;23.474;2023-02-28T07:47:39;2.93;;;2.73;;
19388;SDS011;9830;41.876;23.474;2023-02-28T07:50:06;3.57;;;3.23;;
19388;SDS011;9830;41.876;23.474;2023-02-28T07:52:34;5.93;;;4.33;;
19388;SDS011;9830;41.876;23.474;2023-02-28T07:55:00;11.27;;;4.47;;
19388;SDS011;9830;41.876;23.474;2023-02-28T07:57:26;2.63;;;2.43;;
19388;SDS011;9830;41.876;23.474;2023-02-28T07:59:52;3.50;;;2.23;;
19388;SDS011;9830;41.876;23.474;2023-02-28T08:02:18;0.67;;;0.67;;
19388;SDS011;9830;41.876;23.474;2023-02-28T08:04:44;0.60;;;0.57;;
19388;SDS011;9830;41.876;23.474;2023-02-28T08:07:12;7.80;;;4.27;;
19388;SDS011;9830;41.876;23.474;2023-02-28T08:09:39;5.50;;;3.43;;
19388;SDS011;9830;41.876;23.474;2023-02-28T08:12:06;3.40;;;3.10;;
19388;SDS011;9830;41.876;23.474;2023-02-28T08:14:32;2.23;;;2.13;;
19388;SDS011;9830;41.876;23.474;2023-02-28T08:16:58;4.70;;;2.20;;
19388;SDS011;9830;41.876;23.474;2023-02-28T08:19:24;0.67;;;0.67;;
19388;SDS011;9830;41.876;23.474;2023-02-28T08:21:50;44.97;;;3.20;;
19388;SDS011;9830;41.876;23.474;2023-02-28T08:24:15;0.47;;;0.47;;
19388;SDS011;9830;41.876;23.474;2023-02-28T08:26:41;2.07;;;1.23;;
19388;SDS011;9830;41.876;23.474;2023-02-28T08:29:07;1.30;;;1.20;;
19388;SDS011;9830;41.876;23.474;2023-02-28T08:31:33;0.40;;;0.40;;
19388;SDS011;9830;41.876;23.474;2023-02-28T08:34:00;2.60;;;1.37;;
19388;SDS011;9830;41.876;23.474;2023-02-28T08:36:33;0.53;;;0.53;;
19388;SDS011;9830;41.876;23.474;2023-02-28T08:38:59;2.00;;;1.80;;
19388;SDS011;9830;41.876;23.474;2023-02-28T08:41:25;2.97;;;2.67;;
19388;SDS011;9830;41.876;23.474;2023-02-28T08:43:51;1.47;;;1.37;;
19388;SDS011;9830;41.876;23.474;2023-02-28T08:46:16;2.60;;;1.07;;
19388;SDS011;9830;41.876;23.474;2023-02-28T08:48:42;5.83;;;2.63;;
19388;SDS011;9830;41.876;23.474;2023-02-28T08:51:10;2.87;;;1.60;;
19388;SDS011;9830;41.876;23.474;2023-02-28T08:53:46;10.70;;;1.13;;
19388;SDS011;9830;41.876;23.474;2023-02-28T08:56:15;1.87;;;1.57;;
19388;SDS011;9830;41.876;23.474;2023-02-28T08:58:44;1.37;;;1.27;;
19388;SDS011;9830;41.876;23.474;2023-02-28T09:03:41;1.40;;;1.30;;
19388;SDS011;9830;41.876;23.474;2023-02-28T09:06:08;5.10;;;2.70;;
19388;SDS011;9830;41.876;23.474;2023-02-28T09:08:34;5.27;;;1.90;;
19388;SDS011;9830;41.876;23.474;2023-02-28T09:11:00;1.00;;;1.00;;
19388;SDS011;9830;41.876;23.474;2023-02-28T09:13:27;1.60;;;1.50;;
19388;SDS011;9830;41.876;23.474;2023-02-28T09:15:53;3.80;;;1.90;;
19388;SDS011;9830;41.876;23.474;2023-02-28T09:18:19;3.90;;;1.80;;
19388;SDS011;9830;41.876;23.474;2023-02-28T09:20:45;0.87;;;0.87;;
19388;SDS011;9830;41.876;23.474;2023-02-28T09:23:11;0.90;;;0.90;;
19388;SDS011;9830;41.876;23.474;2023-02-28T09:25:44;0.43;;;0.43;;
19388;SDS011;9830;41.876;23.474;2023-02-28T09:28:14;2.60;;;2.13;;
19388;SDS011;9830;41.876;23.474;2023-02-28T09:30:41;10.27;;;1.80;;
19388;SDS011;9830;41.876;23.474;2023-02-28T09:33:06;10.00;;;3.00;;
19388;SDS011;9830;41.876;23.474;2023-02-28T09:35:32;5.03;;;2.13;;
19388;SDS011;9830;41.876;23.474;2023-02-28T09:37:58;3.80;;;1.20;;
19388;SDS011;9830;41.876;23.474;2023-02-28T09:40:24;8.60;;;2.50;;
19388;SDS011;9830;41.876;23.474;2023-02-28T09:42:52;1.40;;;0.77;;
19388;SDS011;9830;41.876;23.474;2023-02-28T09:45:30;1.90;;;1.03;;
19388;SDS011;9830;41.876;23.474;2023-02-28T09:48:12;5.60;;;2.80;;
19388;SDS011;9830;41.876;23.474;2023-02-28T09:50:46;2.07;;;1.60;;
19388;SDS011;9830;41.876;23.474;2023-02-28T09:56:11;1.50;;;1.40;;
19388;SDS011;9830;41.876;23.474;2023-02-28T09:58:52;1.73;;;1.63;;
19388;SDS011;9830;41.876;23.474;2023-02-28T10:02:09;3.70;;;2.77;;
19388;SDS011;9830;41.876;23.474;2023-02-28T10:07:16;3.13;;;1.70;;
19388;SDS011;9830;41.876;23.474;2023-02-28T10:09:42;32.07;;;3.77;;
19388;SDS011;9830;41.876;23.474;2023-02-28T10:12:11;27.77;;;3.93;;
19388;SDS011;9830;41.876;23.474;2023-02-28T10:14:39;4.37;;;2.90;;
19388;SDS011;9830;41.876;23.474;2023-02-28T10:17:11;2.40;;;1.83;;
19388;SDS011;9830;41.876;23.474;2023-02-28T10:22:16;5.80;;;2.40;;
19388;SDS011;9830;41.876;23.474;2023-02-28T10:24:50;2.87;;;1.87;;
19388;SDS011;9830;41.876;23.474;2023-02-28T10:27:24;1.90;;;1.00;;
19388;SDS011;9830;41.876;23.474;2023-02-28T10:29:53;4.80;;;2.20;;
19388;SDS011;9830;41.876;23.474;2023-02-28T10:32:22;1.77;;;1.67;;
19388;SDS011;9830;41.876;23.474;2023-02-28T10:35:00;3.20;;;1.50;;
19388;SDS011;9830;41.876;23.474;2023-02-28T10:37:40;3.53;;;2.67;;
19388;SDS011;9830;41.876;23.474;2023-02-28T10:40:30;10.77;;;2.97;;
19388;SDS011;9830;41.876;23.474;2023-02-28T10:45:53;2.07;;;1.90;;
19388;SDS011;9830;41.876;23.474;2023-02-28T10:56:00;6.50;;;1.83;;
19388;SDS011;9830;41.876;23.474;2023-02-28T10:58:56;3.03;;;1.27;;
19388;SDS011;9830;41.876;23.474;2023-02-28T11:01:24;3.77;;;0.97;;
19388;SDS011;9830;41.876;23.474;2023-02-28T11:04:00;5.93;;;2.93;;
19388;SDS011;9830;41.876;23.474;2023-02-28T11:06:29;3.83;;;2.20;;
19388;SDS011;9830;41.876;23.474;2023-02-28T11:08:57;6.77;;;1.47;;
19388;SDS011;9830;41.876;23.474;2023-02-28T11:11:26;2.17;;;1.63;;
19388;SDS011;9830;41.876;23.474;2023-02-28T11:13:56;2.50;;;1.73;;
19388;SDS011;9830;41.876;23.474;2023-02-28T11:16:34;1.50;;;0.87;;
19388;SDS011;9830;41.876;23.474;2023-02-28T11:19:03;0.97;;;0.97;;
19388;SDS011;9830;41.876;23.474;2023-02-28T11:21:36;7.20;;;3.87;;
19388;SDS011;9830;41.876;23.474;2023-02-28T11:34:26;4.53;;;2.80;;
19388;SDS011;9830;41.876;23.474;2023-02-28T11:36:53;6.30;;;2.13;;
19388;SDS011;9830;41.876;23.474;2023-02-28T11:39:21;2.10;;;1.40;;
19388;SDS011;9830;41.876;23.474;2023-02-28T11:42:01;5.20;;;2.77;;
19388;SDS011;9830;41.876;23.474;2023-02-28T11:52:45;5.43;;;2.50;;
19388;SDS011;9830;41.876;23.474;2023-02-28T11:55:20;1.83;;;1.73;;
19388;SDS011;9830;41.876;23.474;2023-02-28T12:08:59;5.60;;;2.80;;
19388;SDS011;9830;41.876;23.474;2023-02-28T12:11:40;4.63;;;2.83;;
19388;SDS011;9830;41.876;23.474;2023-02-28T12:22:27;3.83;;;2.43;;
19388;SDS011;9830;41.876;23.474;2023-02-28T12:25:01;31.83;;;3.67;;
19388;SDS011;9830;41.876;23.474;2023-02-28T12:27:31;1.53;;;1.43;;
19388;SDS011;9830;41.876;23.474;2023-02-28T12:30:05;0.97;;;0.97;;
19388;SDS011;9830;41.876;23.474;2023-02-28T12:32:39;2.93;;;1.83;;
19388;SDS011;9830;41.876;23.474;2023-02-28T12:43:13;2.33;;;1.77;;
19388;SDS011;9830;41.876;23.474;2023-02-28T12:45:43;15.93;;;1.13;;
19388;SDS011;9830;41.876;23.474;2023-02-28T12:48:35;10.97;;;1.87;;
19388;SDS011;9830;41.876;23.474;2023-02-28T12:51:03;1.50;;;0.77;;
19388;SDS011;9830;41.876;23.474;2023-02-28T12:53:32;1.27;;;1.00;;
19388;SDS011;9830;41.876;23.474;2023-02-28T12:56:17;1.63;;;0.90;;
19388;SDS011;9830;41.876;23.474;2023-02-28T12:58:58;8.70;;;3.27;;
19388;SDS011;9830;41.876;23.474;2023-02-28T13:01:42;0.63;;;0.63;;
19388;SDS011;9830;41.876;23.474;2023-02-28T13:09:53;14.67;;;2.80;;
19388;SDS011;9830;41.876;23.474;2023-02-28T13:12:21;3.67;;;1.83;;
19388;SDS011;9830;41.876;23.474;2023-02-28T13:14:48;4.17;;;1.83;;
19388;SDS011;9830;41.876;23.474;2023-02-28T13:17:18;9.23;;;2.37;;
19388;SDS011;9830;41.876;23.474;2023-02-28T13:19:55;0.67;;;0.67;;
19388;SDS011;9830;41.876;23.474;2023-02-28T13:27:47;3.67;;;2.00;;
19388;SDS011;9830;41.876;23.474;2023-02-28T13:33:31;5.00;;;2.37;;
19388;SDS011;9830;41.876;23.474;2023-02-28T13:46:30;1.20;;;1.20;;
19388;SDS011;9830;41.876;23.474;2023-02-28T13:54:48;1.23;;;1.17;;
19388;SDS011;9830;41.876;23.474;2023-02-28T14:00:37;0.83;;;0.83;;
19388;SDS011;9830;41.876;23.474;2023-02-28T14:05:51;1.10;;;0.40;;
19388;SDS011;9830;41.876;23.474;2023-02-28T14:09:18;1.73;;;1.37;;
19388;SDS011;9830;41.876;23.474;2023-02-28T14:11:40;1.27;;;0.83;;
19388;SDS011;9830;41.876;23.474;2023-02-28T14:14:08;0.63;;;0.63;;
19388;SDS011;9830;41.876;23.474;2023-02-28T14:16:54;0.17;;;0.17;;
19388;SDS011;9830;41.876;23.474;2023-02-28T14:19:26;0.00;;;0.00;;
19388;SDS011;9830;41.876;23.474;2023-02-28T14:28:04;8.40;;;0.63;;
19388;SDS011;9830;41.876;23.474;2023-02-28T14:41:36;0.20;;;0.20;;
19388;SDS011;9830;41.876;23.474;2023-02-28T14:46:50;0.00;;;0.00;;
19388;SDS011;9830;41.876;23.474;2023-02-28T14:49:37;2.80;;;1.07;;
19388;SDS011;9830;41.876;23.474;2023-02-28T14:54:37;7.20;;;1.23;;
19388;SDS011;9830;41.876;23.474;2023-02-28T14:57:04;0.20;;;0.20;;
19388;SDS011;9830;41.876;23.474;2023-02-28T15:05:25;0.43;;;0.43;;
19388;SDS011;9830;41.876;23.474;2023-02-28T15:08:12;0.40;;;0.40;;
19388;SDS011;9830;41.876;23.474;2023-02-28T15:10:50;0.30;;;0.30;;
19388;SDS011;9830;41.876;23.474;2023-02-28T15:13:16;1.37;;;1.03;;
19388;SDS011;9830;41.876;23.474;2023-02-28T15:15:56;0.07;;;0.07;;
19388;SDS011;9830;41.876;23.474;2023-02-28T15:18:30;0.40;;;0.40;;
19388;SDS011;9830;41.876;23.474;2023-02-28T15:21:51;1.10;;;0.77;;
19388;SDS011;9830;41.876;23.474;2023-02-28T15:26:41;0.87;;;0.83;;
19388;SDS011;9830;41.876;23.474;2023-02-28T15:29:21;0.63;;;0.30;;
19388;SDS011;9830;41.876;23.474;2023-02-28T15:31:50;2.43;;;0.93;;
19388;SDS011;9830;41.876;23.474;2023-02-28T15:34:21;0.40;;;0.40;;
19388;SDS011;9830;41.876;23.474;2023-02-28T15:39:51;0.10;;;0.10;;
19388;SDS011;9830;41.876;23.474;2023-02-28T15:42:19;0.37;;;0.37;;
19388;SDS011;9830;41.876;23.474;2023-02-28T15:44:46;0.83;;;0.50;;
19388;SDS011;9830;41.876;23.474;2023-02-28T15:52:16;2.10;;;0.77;;
19388;SDS011;9830;41.876;23.474;2023-02-28T15:55:19;0.00;;;0.00;;
19388;SDS011;9830;41.876;23.474;2023-02-28T15:57:48;0.13;;;0.13;;
19388;SDS011;9830;41.876;23.474;2023-02-28T16:00:21;0.23;;;0.23;;
19388;SDS011;9830;41.876;23.474;2023-02-28T16:02:48;0.47;;;0.47;;
19388;SDS011;9830;41.876;23.474;2023-02-28T16:07:46;0.30;;;0.30;;
19388;SDS011;9830;41.876;23.474;2023-02-28T16:10:13;0.57;;;0.57;;
19388;SDS011;9830;41.876;23.474;2023-02-28T16:12:39;0.20;;;0.20;;
19388;SDS011;9830;41.876;23.474;2023-02-28T16:15:16;0.33;;;0.23;;
19388;SDS011;9830;41.876;23.474;2023-02-28T16:17:44;0.10;;;0.10;;
19388;SDS011;9830;41.876;23.474;2023-02-28T16:20:15;0.30;;;0.30;;
19388;SDS011;9830;41.876;23.474;2023-02-28T16:22:44;0.93;;;0.77;;
19388;SDS011;9830;41.876;23.474;2023-02-28T16:25:14;0.90;;;0.90;;
19388;SDS011;9830;41.876;23.474;2023-02-28T16:27:42;0.07;;;0.07;;
19388;SDS011;9830;41.876;23.474;2023-02-28T16:30:15;1.47;;;0.53;;
19388;SDS011;9830;41.876;23.474;2023-02-28T16:32:47;1.13;;;1.00;;
19388;SDS011;9830;41.876;23.474;2023-02-28T16:35:14;0.97;;;0.70;;
19388;SDS011;9830;41.876;23.474;2023-02-28T16:37:40;0.70;;;0.70;;
19388;SDS011;9830;41.876;23.474;2023-02-28T16:40:08;0.63;;;0.63;;
19388;SDS011;9830;41.876;23.474;2023-02-28T16:42:51;1.10;;;0.73;;
19388;SDS011;9830;41.876;23.474;2023-02-28T16:45:21;0.40;;;0.20;;
19388;SDS011;9830;41.876;23.474;2023-02-28T16:47:50;0.40;;;0.40;;
19388;SDS011;9830;41.876;23.474;2023-02-28T16:50:20;1.03;;;0.40;;
19388;SDS011;9830;41.876;23.474;2023-02-28T16:52:47;1.33;;;1.23;;
19388;SDS011;9830;41.876;23.474;2023-02-28T16:55:14;10.20;;;1.60;;
19388;SDS011;9830;41.876;23.474;2023-02-28T16:57:41;3.13;;;0.73;;
19388;SDS011;9830;41.876;23.474;2023-02-28T17:00:08;2.10;;;0.67;;
19388;SDS011;9830;41.876;23.474;2023-02-28T17:02:37;0.07;;;0.07;;
19388;SDS011;9830;41.876;23.474;2023-02-28T17:05:03;0.37;;;0.37;;
19388;SDS011;9830;41.876;23.474;2023-02-28T17:07:29;0.83;;;0.83;;
19388;SDS011;9830;41.876;23.474;2023-02-28T17:09:55;19.60;;;0.80;;
19388;SDS011;9830;41.876;23.474;2023-02-28T17:12:20;0.40;;;0.40;;
19388;SDS011;9830;41.876;23.474;2023-02-28T17:14:46;0.37;;;0.37;;
19388;SDS011;9830;41.876;23.474;2023-02-28T17:17:21;0.10;;;0.10;;
19388;SDS011;9830;41.876;23.474;2023-02-28T17:19:47;0.03;;;0.03;;
19388;SDS011;9830;41.876;23.474;2023-02-28T17:22:13;1.00;;;0.47;;
19388;SDS011;9830;41.876;23.474;2023-02-28T17:24:38;0.00;;;0.00;;
19388;SDS011;9830;41.876;23.474;2023-02-28T17:27:04;0.10;;;0.10;;
19388;SDS011;9830;41.876;23.474;2023-02-28T17:29:30;1.50;;;0.80;;
19388;SDS011;9830;41.876;23.474;2023-02-28T17:31:56;1.03;;;0.97;;
19388;SDS011;9830;41.876;23.474;2023-02-28T17:34:22;0.73;;;0.73;;
19388;SDS011;9830;41.876;23.474;2023-02-28T17:36:48;0.37;;;0.37;;
19388;SDS011;9830;41.876;23.474;2023-02-28T17:39:15;0.30;;;0.30;;
19388;SDS011;9830;41.876;23.474;2023-02-28T17:41:52;0.33;;;0.33;;
19388;SDS011;9830;41.876;23.474;2023-02-28T17:44:19;0.33;;;0.33;;
19388;SDS011;9830;41.876;23.474;2023-02-28T17:46:45;0.67;;;0.40;;
19388;SDS011;9830;41.876;23.474;2023-02-28T17:49:12;0.17;;;0.10;;
19388;SDS011;9830;41.876;23.474;2023-02-28T17:51:38;0.30;;;0.30;;
19388;SDS011;9830;41.876;23.474;2023-02-28T17:54:03;5.53;;;0.50;;
19388;SDS011;9830;41.876;23.474;2023-02-28T17:56:30;0.57;;;0.57;;
19388;SDS011;9830;41.876;23.474;2023-02-28T17:58:56;0.53;;;0.53;;
19388;SDS011;9830;41.876;23.474;2023-02-28T18:01:22;0.77;;;0.73;;
19388;SDS011;9830;41.876;23.474;2023-02-28T18:03:52;2.00;;;1.43;;
19388;SDS011;9830;41.876;23.474;2023-02-28T18:06:20;0.17;;;0.17;;
19388;SDS011;9830;41.876;23.474;2023-02-28T18:08:49;0.03;;;0.03;;
19388;SDS011;9830;41.876;23.474;2023-02-28T18:11:19;0.00;;;0.00;;